Denholm, Canada
Current Conditions -  °F | °C
As of 1:00 PM on Friday 31 Oct 2014 (Local Time) from CYQW Reporting Station
Scattered Clouds Scattered Clouds  
Wind Chill: 34°   Ceiling: Unl
Heat Index: 43°   Visibility: 9mi
Dew Point: 34°   Wind: 22mph
Humidity: 70%   Direction: 140°SE
Pressure: 29.76"   Gusts: 29mph
Location:  52.65°N, 108.02°W
Report Text: CYQW 311900Z AUTO 14019G25KT 9SM SCT150 SCT180 06/01 A2976 RMK SLP101
Loading
Personal Weather Stations






























Interactive Weather Map
Tropical Storm Tracking
New forecast layout! Learn more

10-Day Weather Forecast

Advertisements
Track Severe Weather on mobile